Time;durP1;ratioP1;P1;durP2;ratioP2;P2;SDS_P1;SDS_P2;PMS_P1;PMS_P2;Temp;Humidity;BMP_temperature;BMP_pressure;BME280_temperature;BME280_humidity;BME280_pressure;Samples;Min_cycle;Max_cycle;Signal;HPM_P1;HPM_P2
2022/12/17 13:07:29;;;;;;;31.43;18.30;;;;;;;11.97;100.00;99917.80;123153;1102;104358;-76
2022/12/17 13:10:01;;;;;;;31.23;17.93;;;;;;;11.93;100.00;99916.83;123225;1099;104280;-77
2022/12/17 13:12:43;;;;;;;31.50;18.00;;;;;;;11.90;100.00;99913.23;123200;1099;104361;-77
2022/12/17 13:15:26;;;;;;;31.03;17.00;;;;;;;11.85;100.00;99915.77;123246;1102;104364;-76
2022/12/17 13:18:04;;;;;;;31.93;17.37;;;;;;;11.82;100.00;99898.17;123164;1099;104221;-77
2022/12/17 13:20:36;;;;;;;32.43;18.00;;;;;;;11.80;100.00;99931.44;123195;1102;104357;-77
2022/12/17 13:23:17;;;;;;;35.33;18.97;;;;;;;11.78;100.00;99925.27;123154;1102;104297;-76
2022/12/17 13:25:48;;;;;;;33.43;20.10;;;;;;;11.72;100.00;99935.64;123187;1102;104255;-76
2022/12/17 13:28:30;;;;;;;32.83;19.63;;;;;;;11.66;100.00;99940.77;123176;1100;104470;-77
2022/12/17 13:31:13;;;;;;;34.73;19.67;;;;;;;11.62;100.00;99946.80;123257;1099;104275;-76
2022/12/17 13:34:03;;;;;;;33.60;20.27;;;;;;;11.57;100.00;99951.94;123172;1099;104267;-76
2022/12/17 13:36:43;;;;;;;37.07;20.33;;;;;;;11.53;100.00;99960.63;123224;1102;104194;-76
2022/12/17 13:39:31;;;;;;;35.57;20.57;;;;;;;11.48;100.00;99968.41;123128;1102;104270;-76
2022/12/17 13:42:03;;;;;;;35.20;20.60;;;;;;;11.44;100.00;99987.56;123239;1100;104626;-76
2022/12/17 13:44:40;;;;;;;39.03;22.40;;;;;;;11.40;100.00;99985.70;123193;1102;104354;-77
2022/12/17 13:47:22;;;;;;;38.40;22.43;;;;;;;11.37;100.00;99985.63;123227;1102;104274;-77
2022/12/17 13:49:55;;;;;;;39.55;22.85;;;;;;;11.31;100.00;99978.51;123249;1099;104284;-76
2022/12/17 13:52:28;;;;;;;39.73;22.50;;;;;;;11.28;100.00;99981.06;123298;1098;104271;-77
2022/12/17 13:55:10;;;;;;;39.20;23.13;;;;;;;11.25;100.00;99978.36;123246;1099;104319;-77
2022/12/17 13:57:46;;;;;;;41.97;24.40;;;;;;;11.21;100.00;99972.98;123133;1099;104424;-76
2022/12/17 14:00:27;;;;;;;39.63;22.77;;;;;;;11.14;100.00;99970.21;123215;1099;104342;-76
2022/12/17 14:03:09;;;;;;;39.00;22.77;;;;;;;11.10;100.00;99991.10;123223;1102;104783;-76
2022/12/17 14:05:44;;;;;;;40.30;22.23;;;;;;;11.03;100.00;100011.07;123200;1102;104405;-77
2022/12/17 14:08:19;;;;;;;38.77;22.53;;;;;;;10.86;100.00;99999.22;123245;1102;104342;-77
2022/12/17 14:12:21;;;;;;;37.40;22.20;;;;;;;10.72;100.00;100005.00;123397;1099;107962;-76
2022/12/17 14:13:46;;;;;;;44.85;25.48;;;;;;;10.55;100.00;100020.27;123272;1099;104270;-77
2022/12/17 14:16:19;;;;;;;43.27;25.47;;;;;;;10.45;100.00;100022.59;123286;1099;104460;-77
2022/12/17 14:18:53;;;;;;;46.93;27.47;;;;;;;10.34;100.00;100035.39;123352;1099;104271;-76
2022/12/17 14:21:26;;;;;;;47.50;28.27;;;;;;;10.25;100.00;100059.57;123253;1102;104329;-77
2022/12/17 14:23:58;;;;;;;48.10;28.47;;;;;;;10.14;100.00;100077.59;123260;1100;104326;-79
2022/12/17 14:26:29;;;;;;;47.37;25.87;;;;;;;10.01;100.00;100086.83;123224;1102;104393;-77
2022/12/17 14:29:00;;;;;;;50.47;27.97;;;;;;;9.84;100.00;100106.38;123148;1102;105613;-77
2022/12/17 14:31:31;;;;;;;50.20;27.67;;;;;;;9.65;100.00;100099.65;123240;1099;104283;-77
2022/12/17 14:34:06;;;;;;;48.80;26.93;;;;;;;9.47;100.00;100107.77;123190;1102;104473;-77
2022/12/17 14:36:39;;;;;;;52.67;28.23;;;;;;;9.32;100.00;100119.51;123317;1099;104479;-78
2022/12/17 14:39:21;;;;;;;47.85;25.70;;;;;;;9.19;100.00;100135.61;123321;1102;104294;-77
2022/12/17 14:44:51;;;;;;;47.83;25.47;;;;;;;8.83;100.00;100137.80;123190;1100;104303;-78
2022/12/17 14:47:26;;;;;;;49.67;26.33;;;;;;;8.63;100.00;100149.31;123169;1102;104357;-78
2022/12/17 14:50:03;;;;;;;46.17;24.20;;;;;;;8.50;100.00;100165.36;123196;1101;105047;-77
2022/12/17 14:52:41;;;;;;;45.87;24.40;;;;;;;8.34;100.00;100170.81;123426;1099;104232;-76
2022/12/17 14:55:31;;;;;;;42.10;22.97;;;;;;;8.19;100.00;100212.90;123849;1099;104300;-78
2022/12/17 14:58:21;;;;;;;41.67;20.50;;;;;;;8.04;100.00;100215.76;123520;1100;104367;-76
2022/12/17 15:00:58;;;;;;;40.23;21.80;;;;;;;7.92;100.00;100209.20;123505;1099;104479;-77
2022/12/17 15:03:32;;;;;;;41.17;20.63;;;;;;;7.82;99.61;100207.06;123394;1100;104510;-77
2022/12/17 15:06:05;;;;;;;39.63;21.57;;;;;;;7.79;100.00;100211.23;123251;1102;104297;-77
2022/12/17 15:08:40;;;;;;;38.33;20.50;;;;;;;7.73;99.94;100207.55;123444;1102;104252;-78
2022/12/17 15:11:14;;;;;;;37.87;20.17;;;;;;;7.69;100.00;100212.58;123171;1099;104357;-77
2022/12/17 15:13:45;;;;;;;40.23;19.63;;;;;;;7.66;100.00;100229.00;123279;1099;104480;-77
2022/12/17 15:16:17;;;;;;;35.77;18.90;;;;;;;7.62;99.68;100234.02;123278;1099;104250;-77
2022/12/17 15:18:48;;;;;;;36.63;20.13;;;;;;;7.55;99.80;100241.59;123244;1099;104268;-77
2022/12/17 15:21:20;;;;;;;39.00;21.20;;;;;;;7.49;99.34;100254.37;123239;1099;104377;-77
2022/12/17 15:23:51;;;;;;;35.13;19.63;;;;;;;7.45;99.95;100272.44;123202;1102;104809;-77
2022/12/17 15:26:22;;;;;;;37.90;19.95;;;;;;;7.44;100.00;100275.90;123149;1102;104245;-76
2022/12/17 15:28:53;;;;;;;37.53;20.17;;;;;;;7.37;99.55;100288.67;123155;1102;104322;-78
2022/12/17 15:31:25;;;;;;;36.00;19.90;;;;;;;7.33;100.00;100293.69;123163;1099;104274;-78
2022/12/17 15:33:56;;;;;;;34.90;18.63;;;;;;;7.28;99.79;100303.92;123229;1099;104289;-76
2022/12/17 15:36:27;;;;;;;34.80;19.00;;;;;;;7.27;99.87;100307.34;123335;1099;104254;-78
2022/12/17 15:38:59;;;;;;;38.77;20.77;;;;;;;7.25;100.00;100313.34;123169;1099;104313;-77
2022/12/17 15:44:18;;;;;;;34.67;18.20;;;;;;;7.19;100.00;100335.70;123342;1102;104255;-78
2022/12/17 15:46:50;;;;;;;34.43;17.67;;;;;;;7.14;99.69;100326.77;123260;1102;104280;-77
2022/12/17 15:49:21;;;;;;;33.23;17.27;;;;;;;7.08;99.34;100344.75;123248;1100;104283;-78
2022/12/17 15:51:52;;;;;;;30.83;15.87;;;;;;;7.01;98.67;100358.31;123233;1102;104738;-78
2022/12/17 15:54:24;;;;;;;30.77;15.87;;;;;;;6.95;99.21;100340.67;123235;1102;104699;-78
2022/12/17 15:56:57;;;;;;;26.53;13.87;;;;;;;6.87;98.16;100339.38;123296;1100;104201;-78
2022/12/17 15:59:28;;;;;;;29.40;14.30;;;;;;;6.81;98.62;100376.52;123416;1102;104265;-77
2022/12/17 16:01:59;;;;;;;27.65;14.20;;;;;;;6.74;98.51;100363.11;123079;1102;104293;-77
2022/12/17 16:04:30;;;;;;;26.07;14.20;;;;;;;6.72;98.42;100356.93;123232;1102;104334;-77
2022/12/17 16:07:01;;;;;;;28.13;14.53;;;;;;;6.69;98.70;100343.74;123221;1102;104377;-77
2022/12/17 16:09:32;;;;;;;31.63;15.67;;;;;;;6.68;98.83;100354.98;123176;1102;104319;-77
2022/12/17 16:12:03;;;;;;;29.47;15.77;;;;;;;6.65;98.74;100355.71;123130;1102;105688;-77
2022/12/17 16:14:34;;;;;;;29.70;15.87;;;;;;;6.62;98.89;100353.88;123135;1102;104303;-78
2022/12/17 16:17:06;;;;;;;27.83;15.20;;;;;;;6.60;98.70;100351.99;123186;1102;104354;-78
2022/12/17 16:19:37;;;;;;;27.47;14.23;;;;;;;6.55;98.18;100364.80;123104;1102;104441;-77
2022/12/17 16:22:08;;;;;;;27.87;14.13;;;;;;;6.51;98.47;100369.78;123210;1102;104300;-78
2022/12/17 16:24:39;;;;;;;27.30;14.03;;;;;;;6.47;98.34;100366.14;123216;1100;104653;-77
2022/12/17 16:27:11;;;;;;;27.77;13.87;;;;;;;6.45;98.28;100367.76;123242;1102;104380;-78
2022/12/17 16:29:42;;;;;;;26.83;14.03;;;;;;;6.42;98.48;100373.73;123257;1102;104328;-77
2022/12/17 16:32:13;;;;;;;26.63;13.67;;;;;;;6.40;98.43;100379.67;123147;1100;105541;-78
2022/12/17 16:34:45;;;;;;;28.73;15.07;;;;;;;6.38;98.55;100376.11;123136;1102;104200;-76
2022/12/17 16:37:17;;;;;;;28.10;13.95;;;;;;;6.35;98.60;100370.73;123189;1100;104277;-79
2022/12/17 16:39:49;;;;;;;26.73;14.20;;;;;;;6.32;98.36;100387.10;123197;1102;104265;-78
2022/12/17 16:42:20;;;;;;;28.00;14.37;;;;;;;6.28;98.23;100406.02;123226;1100;104300;-78
2022/12/17 16:44:51;;;;;;;26.33;14.47;;;;;;;6.25;98.26;100405.87;123190;1102;104731;-77
2022/12/17 16:47:22;;;;;;;26.57;13.17;;;;;;;6.21;97.86;100412.61;123311;1102;104251;-78
2022/12/17 16:49:53;;;;;;;28.97;14.27;;;;;;;6.18;98.48;100421.98;123246;1102;104354;-78
2022/12/17 16:52:25;;;;;;;27.47;13.77;;;;;;;6.13;98.03;100431.28;123200;1100;104274;-77
2022/12/17 16:54:56;;;;;;;26.53;13.43;;;;;;;6.08;97.77;100434.53;123194;1102;104679;-77
2022/12/17 16:57:27;;;;;;;27.70;14.03;;;;;;;6.03;97.48;100435.09;123153;1102;104280;-78
2022/12/17 16:59:58;;;;;;;28.70;13.53;;;;;;;5.99;97.50;100443.58;123243;1102;104277;-79
2022/12/17 17:02:29;;;;;;;28.07;13.47;;;;;;;5.97;97.72;100432.16;123184;1102;104245;-78
2022/12/17 17:05:00;;;;;;;23.80;12.60;;;;;;;5.93;97.14;100444.10;123250;1102;104251;-78
2022/12/17 17:07:31;;;;;;;28.20;13.50;;;;;;;5.90;97.19;100449.14;123331;1100;104329;-78
2022/12/17 17:10:02;;;;;;;24.70;13.30;;;;;;;5.86;97.76;100448.09;123176;1102;104402;-77
2022/12/17 17:12:34;;;;;;;27.80;13.77;;;;;;;5.87;97.53;100448.98;123082;1102;104347;-78
2022/12/17 17:15:06;;;;;;;23.70;12.50;;;;;;;5.85;97.28;100453.22;123097;1100;104274;-79
2022/12/17 17:17:37;;;;;;;24.80;12.60;;;;;;;5.80;96.62;100462.47;123151;1102;104646;-79
2022/12/17 17:20:10;;;;;;;26.37;13.10;;;;;;;5.74;97.05;100469.14;123123;1102;104412;-78
2022/12/17 17:22:41;;;;;;;24.60;12.43;;;;;;;5.68;96.94;100461.00;123260;1102;104246;-78
2022/12/17 17:25:15;;;;;;;22.90;11.77;;;;;;;5.65;96.85;100473.84;123161;1102;104290;-78
2022/12/17 17:27:46;;;;;;;25.33;11.90;;;;;;;5.63;96.75;100474.59;123262;1102;104357;-78
2022/12/17 17:30:17;;;;;;;23.57;11.43;;;;;;;5.60;96.68;100480.52;123198;1102;104379;-79
2022/12/17 17:32:49;;;;;;;23.30;11.77;;;;;;;5.58;96.52;100487.36;123110;1102;104386;-77
2022/12/17 17:35:20;;;;;;;23.77;11.57;;;;;;;5.55;96.81;100497.60;123108;1102;107157;-77
2022/12/17 17:37:51;;;;;;;22.73;10.73;;;;;;;5.51;96.38;100500.83;123106;1102;104345;-77
2022/12/17 17:40:22;;;;;;;21.10;9.60;;;;;;;5.46;96.31;100505.78;123113;1102;104226;-78
2022/12/17 17:42:54;;;;;;;18.20;8.90;;;;;;;5.40;96.30;100516.73;123111;1102;104296;-78
2022/12/17 17:45:25;;;;;;;20.57;9.23;;;;;;;5.37;96.25;100528.67;123221;1100;118953;-78
2022/12/17 17:47:56;;;;;;;17.17;8.87;;;;;;;5.36;96.85;100530.39;123112;1100;104517;-78
2022/12/17 17:50:27;;;;;;;20.23;9.37;;;;;;;5.35;96.12;100528.59;123198;1102;104239;-78
2022/12/17 17:52:58;;;;;;;18.47;8.70;;;;;;;5.34;96.08;100537.20;123250;1102;104229;-78
2022/12/17 17:55:33;;;;;;;17.50;8.57;;;;;;;5.33;96.39;100545.83;123135;1102;104274;-76
2022/12/17 17:58:05;;;;;;;16.53;7.90;;;;;;;5.32;95.50;100551.83;123299;1102;104175;-78
2022/12/17 18:00:37;;;;;;;16.17;8.30;;;;;;;5.31;96.09;100549.14;123265;1102;104386;-77
2022/12/17 18:03:08;;;;;;;16.10;7.30;;;;;;;5.26;94.80;100561.00;123297;1102;104393;-78
2022/12/17 18:05:41;;;;;;;15.10;7.50;;;;;;;5.23;95.34;100566.91;123295;1102;105485;-77
2022/12/17 18:08:12;;;;;;;15.50;6.93;;;;;;;5.21;95.33;100576.34;123247;1102;104303;-77
2022/12/17 18:10:54;;;;;;;15.77;7.53;;;;;;;5.20;95.21;100561.53;123231;1102;104271;-78
2022/12/17 18:16:14;;;;;;;17.53;8.57;;;;;;;5.10;94.66;100585.23;123220;1102;104277;-78
2022/12/17 18:18:46;;;;;;;16.93;8.57;;;;;;;5.07;94.53;100585.94;123330;1102;104274;-77
2022/12/17 18:21:19;;;;;;;18.53;9.33;;;;;;;5.07;95.04;100585.94;123208;1102;104328;-77
2022/12/17 18:23:54;;;;;;;12.87;7.60;;;;;;;5.07;94.70;100598.05;123237;1102;104271;-78
2022/12/17 18:26:25;;;;;;;13.70;7.50;;;;;;;5.06;95.03;100599.73;123413;1100;104334;-77
2022/12/17 18:29:01;;;;;;;13.50;7.23;;;;;;;5.07;94.87;100606.74;123188;1100;104351;-78
2022/12/17 18:31:33;;;;;;;15.37;7.83;;;;;;;5.03;94.81;100616.08;123325;1102;104389;-78
2022/12/17 18:34:06;;;;;;;13.37;7.03;;;;;;;5.03;94.66;100615.16;123291;1102;104293;-78
2022/12/17 18:36:39;;;;;;;11.43;5.97;;;;;;;4.99;94.33;100621.00;123535;1102;104246;-78
2022/12/17 18:39:13;;;;;;;8.50;4.70;;;;;;;4.92;93.53;100604.11;123406;1100;104251;-78
2022/12/17 18:44:36;;;;;;;6.93;4.13;;;;;;;4.88;94.54;100622.95;123171;1102;104245;-77
2022/12/17 18:47:09;;;;;;;5.90;3.70;;;;;;;4.84;93.64;100628.77;123170;1102;104306;-78
2022/12/17 18:49:40;;;;;;;6.63;3.73;;;;;;;4.74;91.87;100629.91;123234;1100;104399;-78
2022/12/17 18:52:11;;;;;;;6.80;4.10;;;;;;;4.70;92.49;100640.92;123298;1102;104373;-78
2022/12/17 18:54:43;;;;;;;6.03;4.03;;;;;;;4.64;92.88;100662.25;123276;1102;104269;-78
2022/12/17 18:57:14;;;;;;;6.10;3.80;;;;;;;4.61;93.11;100662.06;123507;1102;109489;-78
2022/12/17 18:59:45;;;;;;;7.63;4.27;;;;;;;4.61;93.10;100667.26;123324;1102;104794;-78
2022/12/17 19:02:16;;;;;;;6.25;3.85;;;;;;;4.59;93.03;100684.44;123330;1102;104336;-78
2022/12/17 19:04:48;;;;;;;7.50;3.90;;;;;;;4.57;92.31;100685.17;123330;1102;104225;-78
2022/12/17 19:07:19;;;;;;;5.27;3.43;;;;;;;4.53;92.94;100676.25;123213;1102;104393;-78
2022/12/17 19:09:50;;;;;;;5.55;3.90;;;;;;;4.51;92.69;100680.47;123343;1100;104264;-78
2022/12/17 19:12:21;;;;;;;6.43;3.90;;;;;;;4.49;92.64;100690.77;123155;1100;104252;-77
2022/12/17 19:14:52;;;;;;;7.80;4.23;;;;;;;4.52;93.70;100700.47;123260;1102;104348;-77
2022/12/17 19:17:25;;;;;;;5.87;4.20;;;;;;;4.53;93.04;100722.15;123110;1100;104395;-77
2022/12/17 19:19:56;;;;;;;6.73;4.33;;;;;;;4.53;93.48;100728.23;123135;1102;104304;-78
2022/12/17 19:22:27;;;;;;;6.47;4.20;;;;;;;4.54;93.56;100736.95;123175;1101;104290;-77
2022/12/17 19:24:58;;;;;;;7.50;4.13;;;;;;;4.56;93.58;100746.63;123164;1100;104278;-78
2022/12/17 19:27:29;;;;;;;7.00;4.27;;;;;;;4.56;93.52;100740.53;123134;1102;105674;-78
2022/12/17 19:30:00;;;;;;;7.93;4.10;;;;;;;4.53;92.53;100738.63;123141;1100;104286;-77
2022/12/17 19:32:31;;;;;;;7.80;4.10;;;;;;;4.49;92.19;100736.66;123129;1101;104278;-78
2022/12/17 19:35:03;;;;;;;7.00;4.03;;;;;;;4.46;92.80;100741.66;123131;1102;104351;-77
2022/12/17 19:37:34;;;;;;;6.43;3.63;;;;;;;4.44;92.26;100745.84;123166;1102;104280;-78
2022/12/17 19:40:07;;;;;;;5.97;3.60;;;;;;;4.42;92.73;100769.13;123176;1102;104757;-77
2022/12/17 19:42:41;;;;;;;5.73;3.53;;;;;;;4.38;91.86;100766.23;123137;1102;104396;-77
2022/12/17 19:45:12;;;;;;;6.07;3.20;;;;;;;4.34;91.19;100775.53;123102;1102;104730;-77
2022/12/17 19:47:43;;;;;;;5.77;3.67;;;;;;;4.34;92.89;100780.73;123164;1102;104258;-77
2022/12/17 19:50:15;;;;;;;6.53;3.73;;;;;;;4.35;92.80;100790.33;123129;1102;104245;-77
2022/12/17 19:52:46;;;;;;;4.73;3.40;;;;;;;4.36;92.29;100796.41;123113;1102;104352;-77
2022/12/17 19:55:20;;;;;;;7.83;3.80;;;;;;;4.35;92.64;100807.59;123133;1100;104370;-78
2022/12/17 19:57:51;;;;;;;6.30;3.53;;;;;;;4.28;92.17;100798.52;123105;1100;104321;-77
2022/12/17 20:00:23;;;;;;;6.93;3.57;;;;;;;4.23;91.48;100818.09;123133;1102;104268;-78
2022/12/17 20:02:54;;;;;;;5.13;3.27;;;;;;;4.19;91.55;100832.59;123151;1102;104265;-77
2022/12/17 20:05:25;;;;;;;6.43;3.43;;;;;;;4.14;92.20;100819.30;123119;1102;104389;-77
2022/12/17 20:07:56;;;;;;;5.93;3.60;;;;;;;4.10;91.77;100825.08;123096;1102;104284;-77
2022/12/17 20:10:27;;;;;;;9.00;3.50;;;;;;;4.06;91.49;100830.85;123123;1102;104322;-77
2022/12/17 20:12:58;;;;;;;5.67;3.50;;;;;;;4.03;90.97;100837.55;123046;1102;104278;-77
2022/12/17 20:15:30;;;;;;;6.23;3.70;;;;;;;3.99;90.47;100838.13;123062;1102;104393;-78
2022/12/17 20:18:01;;;;;;;4.40;3.30;;;;;;;3.97;91.25;100851.00;123108;1102;104839;-78
2022/12/17 20:20:32;;;;;;;7.70;3.73;;;;;;;3.97;91.36;100851.00;123113;1100;104338;-77
2022/12/17 20:23:03;;;;;;;7.33;3.87;;;;;;;3.98;91.98;100851.93;123076;1102;104274;-77
2022/12/17 20:25:34;;;;;;;6.33;3.80;;;;;;;3.99;91.30;100861.50;123054;1102;104304;-76
2022/12/17 20:28:06;;;;;;;9.00;4.33;;;;;;;3.99;90.98;100871.88;123126;1102;104197;-77
2022/12/17 20:30:39;;;;;;;9.13;4.17;;;;;;;4.00;91.75;100881.48;123139;1102;104511;-77
2022/12/17 20:33:11;;;;;;;9.17;4.27;;;;;;;4.04;91.25;100886.10;123103;1102;104245;-77
2022/12/17 20:35:42;;;;;;;7.53;4.10;;;;;;;4.03;91.37;100905.06;123168;1102;104364;-78
2022/12/17 20:38:13;;;;;;;7.60;4.17;;;;;;;3.99;91.31;100905.64;123093;1102;104323;-77
2022/12/17 20:40:44;;;;;;;6.87;3.83;;;;;;;3.89;90.05;100910.20;123104;1101;104258;-77
2022/12/17 20:43:15;;;;;;;7.23;3.53;;;;;;;3.87;91.21;100916.98;123141;1100;104303;-77
2022/12/17 20:45:50;;;;;;;7.50;3.90;;;;;;;3.82;90.35;100905.40;123105;1100;104319;-78
2022/12/17 20:48:22;;;;;;;6.23;3.60;;;;;;;3.74;89.84;100922.11;123127;1102;104632;-77
2022/12/17 20:50:53;;;;;;;7.23;4.03;;;;;;;3.70;90.33;100933.09;123123;1101;104310;-77
2022/12/17 20:53:24;;;;;;;5.80;3.50;;;;;;;3.67;90.59;100930.28;123162;1102;104294;-77
2022/12/17 20:56:03;;;;;;;6.00;4.20;;;;;;;3.65;89.54;100929.28;123132;1100;104335;-77
2022/12/17 20:58:35;;;;;;;9.13;4.30;;;;;;;3.66;90.31;100938.85;123181;1102;104680;-77
2022/12/17 21:01:09;;;;;;;7.00;3.70;;;;;;;3.63;90.52;100933.45;123162;1102;104322;-77
2022/12/17 21:03:41;;;;;;;5.80;4.07;;;;;;;3.63;90.06;100944.75;123066;1102;104379;-77
2022/12/17 21:06:15;;;;;;;6.90;4.03;;;;;;;3.62;90.35;100953.31;123238;1102;104245;-77
2022/12/17 21:08:48;;;;;;;10.78;5.03;;;;;;;3.64;89.82;100966.41;123140;1102;104255;-78
2022/12/17 21:11:22;;;;;;;7.40;4.63;;;;;;;3.56;89.68;100971.05;123100;1102;104363;-77
2022/12/17 21:13:54;;;;;;;8.70;4.50;;;;;;;3.48;88.63;100986.06;123146;1101;104293;-77
2022/12/17 21:16:29;;;;;;;7.70;4.70;;;;;;;3.41;89.41;100986.41;123218;1102;104274;-77
2022/12/17 21:19:02;;;;;;;9.97;4.40;;;;;;;3.36;89.24;100991.26;123086;1102;105601;-76
2022/12/17 21:21:36;;;;;;;9.88;4.42;;;;;;;3.28;88.08;100997.59;123185;1102;104257;-78
2022/12/17 21:24:09;;;;;;;7.50;4.83;;;;;;;3.25;88.67;100994.77;123044;1100;104262;-77
2022/12/17 21:26:42;;;;;;;10.17;5.20;;;;;;;3.19;89.01;101004.70;123190;1102;104293;-77
2022/12/17 21:29:14;;;;;;;9.23;5.07;;;;;;;3.17;89.69;101004.59;123174;1102;104348;-77
2022/12/17 21:31:47;;;;;;;10.53;5.00;;;;;;;3.18;89.58;101009.00;123128;1100;104274;-77
2022/12/17 21:34:21;;;;;;;10.35;5.40;;;;;;;3.21;89.48;101000.52;123160;1102;104319;-77
2022/12/17 21:36:52;;;;;;;9.55;5.17;;;;;;;3.18;87.98;101018.45;123061;1102;104357;-77
2022/12/17 21:39:23;;;;;;;9.80;4.95;;;;;;;3.12;88.34;101010.25;122910;1102;104332;-77
2022/12/17 21:44:43;;;;;;;12.53;5.13;;;;;;;3.01;89.06;101019.83;122862;1102;104355;-77
2022/12/17 21:47:14;;;;;;;10.97;5.40;;;;;;;2.99;88.46;101035.27;123101;1101;104335;-77
2022/12/17 21:49:45;;;;;;;9.63;5.20;;;;;;;2.97;89.05;101044.59;123055;1100;104351;-77
2022/12/17 21:52:16;;;;;;;10.17;4.87;;;;;;;2.96;88.70;101053.19;123119;1102;104254;-78
2022/12/17 21:54:47;;;;;;;8.57;4.47;;;;;;;2.91;88.10;101043.24;123063;1102;104204;-77
2022/12/17 21:57:19;;;;;;;8.27;4.70;;;;;;;2.85;87.92;101042.01;123194;1102;104197;-78
2022/12/17 21:59:50;;;;;;;9.97;5.30;;;;;;;2.80;88.46;101040.73;123156;1099;104342;-77
2022/12/17 22:02:21;;;;;;;10.17;5.37;;;;;;;2.81;88.54;101049.44;123150;1102;104278;-78
2022/12/17 22:04:52;;;;;;;11.67;5.83;;;;;;;2.82;89.01;101052.14;123129;1099;104382;-77
2022/12/17 22:07:23;;;;;;;10.77;5.57;;;;;;;2.83;89.05;101072.07;123124;1099;104369;-77
2022/12/17 22:09:54;;;;;;;12.97;5.67;;;;;;;2.79;88.13;101067.46;123108;1099;104305;-78
2022/12/17 22:15:20;;;;;;;12.28;5.22;;;;;;;2.74;88.02;101068.78;122702;1103;104441;-78
2022/12/17 22:17:52;;;;;;;13.03;5.60;;;;;;;2.72;87.71;101070.36;123105;1100;104363;-77
2022/12/17 22:20:24;;;;;;;12.20;6.00;;;;;;;2.69;87.70;101070.13;123328;1099;104242;-77
2022/12/17 22:22:56;;;;;;;13.03;6.17;;;;;;;2.65;87.91;101076.77;123283;1099;104363;-77
2022/12/17 22:25:27;;;;;;;13.63;6.30;;;;;;;2.54;86.17;101072.47;123363;1099;104367;-77
2022/12/17 22:27:58;;;;;;;14.83;6.53;;;;;;;2.49;86.37;101073.78;123303;1102;104294;-78
2022/12/17 22:33:18;;;;;;;15.47;6.80;;;;;;;2.41;86.54;101075.77;123242;1102;104248;-78
2022/12/17 22:35:49;;;;;;;14.63;6.73;;;;;;;2.41;86.72;101077.47;123088;1102;104245;-77
2022/12/17 22:38:20;;;;;;;15.10;7.05;;;;;;;2.40;86.46;101096.38;123127;1102;104284;-78
2022/12/17 22:40:52;;;;;;;19.43;7.27;;;;;;;2.37;86.77;101083.19;123080;1099;104371;-77
2022/12/17 22:43:32;;;;;;;17.47;8.07;;;;;;;2.33;86.07;101082.95;123139;1098;104360;-78
2022/12/17 22:46:04;;;;;;;17.73;7.67;;;;;;;2.31;86.37;101086.22;123158;1102;104252;-77
2022/12/17 22:48:36;;;;;;;18.23;7.97;;;;;;;2.31;87.17;101100.06;123117;1102;104258;-77
2022/12/17 22:51:12;;;;;;;16.27;7.33;;;;;;;2.34;86.96;101094.23;123090;1102;104325;-77
2022/12/17 22:53:43;;;;;;;17.87;8.33;;;;;;;2.33;86.62;101087.23;123063;1100;104351;-77
2022/12/17 22:56:14;;;;;;;17.77;8.23;;;;;;;2.37;87.83;101093.55;123207;1100;104347;-77
2022/12/17 22:58:45;;;;;;;18.30;7.93;;;;;;;2.37;87.46;101102.25;123109;1102;104278;-77
2022/12/17 23:01:16;;;;;;;16.03;7.60;;;;;;;2.38;87.52;101119.57;123109;1102;105182;-77
2022/12/17 23:03:47;;;;;;;16.50;8.07;;;;;;;2.38;87.51;101135.11;123186;1102;104287;-78
2022/12/17 23:06:19;;;;;;;18.00;7.95;;;;;;;2.40;87.67;101138.75;123107;1100;104716;-77
2022/12/17 23:08:51;;;;;;;16.20;7.93;;;;;;;2.43;87.64;101146.77;123158;1100;104279;-78
2022/12/17 23:11:24;;;;;;;19.17;8.77;;;;;;;2.41;86.50;101148.30;123087;1102;104469;-77
2022/12/17 23:13:56;;;;;;;17.52;7.95;;;;;;;2.39;86.86;101144.70;123123;1100;104286;-77
2022/12/17 23:16:27;;;;;;;20.00;8.60;;;;;;;2.36;86.39;101138.38;123204;1101;104331;-77
2022/12/17 23:19:01;;;;;;;16.67;7.80;;;;;;;2.28;85.75;101138.67;123085;1102;104345;-77
2022/12/17 23:21:33;;;;;;;17.70;8.33;;;;;;;2.21;86.06;101151.02;123128;1100;104293;-76
2022/12/17 23:24:05;;;;;;;19.77;9.30;;;;;;;2.18;85.93;101149.07;123104;1100;104374;-79
2022/12/17 23:26:38;;;;;;;19.70;9.03;;;;;;;2.18;86.75;101163.72;123242;1102;104274;-78
2022/12/17 23:29:16;;;;;;;20.30;8.75;;;;;;;2.19;87.07;101162.95;123067;1102;104364;-77
2022/12/17 23:31:47;;;;;;;22.13;10.33;;;;;;;2.20;87.13;101167.31;123149;1101;104303;-77
2022/12/17 23:34:18;;;;;;;21.83;9.87;;;;;;;2.20;86.27;101169.91;123112;1102;104315;-77
2022/12/17 23:36:49;;;;;;;21.07;9.33;;;;;;;2.15;85.63;101179.89;123136;1102;104325;-77
2022/12/17 23:39:20;;;;;;;24.87;11.20;;;;;;;2.09;85.92;101189.80;123211;1102;104307;-77
2022/12/17 23:41:53;;;;;;;23.80;11.03;;;;;;;2.03;86.34;101191.89;123155;1099;104392;-77
2022/12/17 23:44:24;;;;;;;25.97;11.43;;;;;;;2.00;85.81;101202.88;123115;1099;104380;-78
2022/12/17 23:46:55;;;;;;;25.50;11.30;;;;;;;1.96;86.04;101218.94;123132;1099;104278;-78
2022/12/17 23:49:27;;;;;;;24.83;10.87;;;;;;;1.93;85.81;101211.84;123138;1099;104277;-78
2022/12/17 23:51:58;;;;;;;27.67;12.63;;;;;;;1.89;85.75;101202.01;123374;1099;105588;-78
2022/12/17 23:54:29;;;;;;;26.00;12.43;;;;;;;1.87;86.05;101188.05;123403;1099;104663;-78
2022/12/17 23:57:00;;;;;;;25.33;10.57;;;;;;;1.83;85.30;101210.97;123391;1099;104293;-77
2022/12/17 23:59:31;;;;;;;27.50;11.67;;;;;;;1.80;85.34;101211.61;123417;1099;104248;-77
